Portada
METAR-TAF:

METAR-TAF

Aeroports :

Auburn, Alabama, Estats Units d'Amèrica

latitud: 32-37N, longitud: 085-26W, altitud: 236 m

Observació

L'informe es va fer fa 32 minuts, a les 12:56 UTC
Vent 3 kt del Sud
Temperatura 23°C
Humitat 100%
Pressió 1017 hPa
Visibilitat: 16.1 km
Cel cobert a una alçada de 600 ft

METAR: KAUO 071256Z AUTO 18003KT 10SM OVC006 23/23 A3003 RMK AO2 SLP181 T02330228 $

Hora: 08:28 (13:28 UTC)


TAF: manca

Observacions i pronòstics meteorològics de més de 4000 aeroports (METAR i TAF).

Les estacions disponibles són els punts grocs i vermells al mapa.

Posi el ratolí al punt desitjat per veure el nom de l'estació.

Feu clic per veure les observacions i els pronòstics meteorològics.

Per canviar el mapa: feu clic els botons verds amb una creu de color negre per apropar; al botó verd amb un guió per allunyar la imatge; o en les fletxes verdes per a mapes adjacents.


METAR-TAF: